Latest Weather Observations for Moruya Airport

IDN60801

Issued at 5:35 pm EST Tuesday 23 September 2014 (issued every 30 minutes, with the page automatically refreshed every 10 minutes)

About weather observations | Map of weather stations | Latest weather observations for NSW | Other Formats
Station Details ID: 069148 Name: MORUYA AIRPORT AWS Lat: -35.90 Lon: 150.14 Height: 4.0 m
Data from the previous 72 hours. | See also: Recent months for locations in New South Wales
Date/Time
EST
Temp
°C
App
Temp
°C
Dew
Point
Rel
Hum
%
Delta-T
°C
Wind Press
QNH
hPa
Press
MSL
hPa
Rain
since 9 am
mm
Dir
 
Spd
km/h
Gust
km/h
Spd
kts
Gust
kts
23/05:30pm 17.5 15.4 13.6 78 2.2 NNE 17 22 9 12 1024.6 1024.6 0.0
23/05:00pm 18.0 15.9 13.7 76 2.4 NNE 17 22 9 12 1024.7 1024.7 0.0
23/04:30pm 18.6 16.2 13.9 74 2.7 NNE 19 24 10 13 1025.0 1025.0 0.0
23/04:00pm 19.0 17.1 14.3 74 2.7 NE 17 24 9 13 1024.9 1024.9 0.0
23/03:30pm 18.8 16.1 13.6 72 3.0 NE 20 26 11 14 1024.8 1024.8 0.0
23/03:00pm 19.1 16.5 13.9 72 3.0 NE 20 24 11 13 1024.8 1024.8 0.0
23/02:30pm 19.3 17.2 14.6 74 2.7 NE 19 26 10 14 1025.0 1025.0 0.0
23/02:00pm 19.3 17.1 14.8 75 2.6 NE 20 26 11 14 1025.2 1025.2 0.0
23/01:30pm 19.1 16.9 14.8 76 2.5 ENE 20 24 11 13 1025.7 1025.7 0.0
23/01:00pm 19.2 16.7 14.0 72 3.0 ENE 20 24 11 13 1026.1 1026.1 0.0
23/12:30pm 18.3 15.8 13.4 73 2.8 NE 19 22 10 12 1026.4 1026.4 0.0
23/12:00pm 18.3 15.4 13.0 71 3.0 ENE 20 24 11 13 1026.6 1026.6 0.0
23/11:30am 18.2 15.9 12.9 71 3.0 ENE 17 19 9 10 1027.2 1027.2 0.0
23/11:00am 17.9 16.6 13.6 76 2.4 E 13 15 7 8 1027.7 1027.7 0.0
23/10:30am 17.0 15.4 12.7 76 2.4 ENE 13 15 7 8 1028.1 1028.1 0.0
23/10:00am 16.2 14.5 12.4 78 2.1 ENE 13 15 7 8 1028.2 1028.2 0.0
23/09:30am 16.1 14.5 12.7 80 1.9 NE 13 15 7 8 1028.2 1028.2 0.0
23/09:00am 15.9 14.7 11.7 76 2.3 ENE 9 11 5 6 1028.7 1028.7 0.0
23/08:30am 14.1 13.0 12.1 88 1.1 SSW 9 11 5 6 1028.9 1028.9 0.0
23/08:00am 12.6 13.0 12.6 100 0.0 W 2 9 1 5 1029.0 1029.0 0.0
23/07:30am 10.8 11.1 10.8 100 0.0 CALM 0 4 0 2 1028.9 1028.9 0.0
23/07:00am 8.9 8.7 8.9 100 0.0 CALM 0 6 0 3 1028.8 1028.8 0.0
23/06:30am 6.6 5.8 6.6 100 0.0 CALM 0 0 0 0 1028.7 1028.7 0.0
23/06:00am 5.3 3.1 5.3 100 0.0 NW 6 7 3 4 1028.7 1028.7 0.0
23/05:31am 5.5 3.3 5.5 100 0.0 NW 6 7 3 4 1028.6 1028.6 0.0
23/05:30am 5.5 3.3 5.5 100 0.0 NW 6 7 3 4 1028.6 1028.6 0.0
23/05:00am 5.7 4.7 5.7 100 0.0 CALM 0 0 0 0 1028.5 1028.5 0.0
23/04:46am 5.8 4.8 5.8 100 0.0 CALM 0 0 0 0 1028.4 1028.4 0.0
23/04:30am 5.5 4.5 5.5 100 0.0 CALM 0 0 0 0 1028.3 1028.3 0.0
23/04:00am 5.8 4.8 5.8 100 0.0 CALM 0 0 0 0 1028.1 1028.1 0.0
23/03:58am 5.6 4.6 5.6 100 0.0 CALM 0 0 0 0 1028.1 1028.1 0.0
23/03:30am 6.3 5.1 6.3 100 0.0 NW 2 7 1 4 1028.1 1028.1 0.0
23/03:00am 6.5 5.7 6.5 100 0.0 CALM 0 0 0 0 1028.1 1028.1 0.0
23/02:30am 6.1 5.2 6.1 100 0.0 CALM 0 0 0 0 1028.2 1028.2 0.0
23/02:08am 6.4 5.6 6.4 100 0.0 CALM 0 0 0 0 1028.3 1028.3 0.0
23/02:00am 7.1 6.4 7.1 100 0.0 CALM 0 0 0 0 1028.4 1028.4 0.0
23/01:54am 6.8 6.1 6.8 100 0.0 CALM 0 0 0 0 1028.4 1028.4 0.0
23/01:36am 6.6 5.8 6.6 100 0.0 CALM 0 0 0 0 1028.5 1028.5 0.0
23/01:30am 7.0 6.3 7.0 100 0.0 CALM 0 0 0 0 1028.6 1028.6 0.0
23/01:00am 7.3 6.7 7.3 100 0.0 CALM 0 0 0 0 1029.0 1029.0 0.0
23/12:30am 7.6 7.0 7.6 100 0.0 CALM 0 0 0 0 1029.3 1029.3 0.0
23/12:19am 7.5 6.9 7.5 100 0.0 CALM 0 0 0 0 1029.4 1029.4 0.0
23/12:06am 7.6 7.0 7.6 100 0.0 CALM 0 0 0 0 1029.5 1029.5 0.0
23/12:00am 7.8 7.3 7.8 100 0.0 WNW 0 0 0 0 1029.5 1029.5 0.0
 
Date/Time
EST
Temp
°C
App
Temp
°C
Dew
Point
Rel
Hum
%
Delta-T
°C
Wind Press
QNH
hPa
Press
MSL
hPa
Rain
since 9 am
mm
Dir
 
Spd
km/h
Gust
km/h
Spd
kts
Gust
kts
22/11:30pm 8.0 7.5 8.0 100 0.0 CALM 0 0 0 0 1029.6 1029.6 0.0
22/11:00pm 8.1 6.9 8.1 100 0.0 WNW 4 7 2 4 1029.7 1029.7 0.0
22/10:30pm 8.9 8.7 8.9 100 0.0 CALM 0 0 0 0 1029.9 1029.9 0.0
22/10:00pm 9.2 9.0 9.2 100 0.0 CALM 0 0 0 0 1030.0 1030.0 0.0
22/09:30pm 9.3 9.2 9.3 100 0.0 CALM 0 0 0 0 1030.2 1030.2 0.0
22/09:00pm 9.5 9.4 9.5 100 0.0 CALM 0 0 0 0 1030.2 1030.2 0.0
22/08:30pm 9.8 9.6 9.2 96 0.3 NW 0 0 0 0 1030.1 1030.1 0.0
22/08:00pm 10.3 9.1 9.4 94 0.4 NW 6 7 3 4 1029.9 1029.9 0.0
22/07:30pm 11.3 10.2 10.0 92 0.7 NNW 6 7 3 4 1029.6 1029.6 0.0
22/07:00pm 13.1 11.9 10.3 83 1.4 N 7 9 4 5 1029.3 1029.3 0.0
22/06:30pm 14.3 12.2 11.1 81 1.7 N 13 17 7 9 1029.0 1029.0 0.0
22/06:00pm 15.6 12.9 11.6 77 2.1 NNE 17 20 9 11 1028.7 1028.7 0.0
22/05:30pm 16.0 13.2 11.4 74 2.5 NNE 17 20 9 11 1028.7 1028.7 0.0
22/05:00pm 16.5 13.8 11.6 73 2.6 NE 17 22 9 12 1028.6 1028.6 0.0
22/04:30pm 16.7 13.5 11.2 70 3.0 NE 19 24 10 13 1028.4 1028.4 0.0
22/04:00pm 17.1 14.1 12.0 72 2.8 NE 19 24 10 13 1028.3 1028.3 0.0
22/03:30pm 17.2 13.8 11.2 68 3.2 NE 20 26 11 14 1028.4 1028.4 0.0
22/03:00pm 17.4 13.9 11.0 66 3.4 NE 20 24 11 13 1028.5 1028.5 0.0
22/02:30pm 17.8 14.5 11.6 67 3.4 NE 20 26 11 14 1028.6 1028.6 0.0
22/02:00pm 17.7 13.9 11.3 66 3.4 NE 22 26 12 14 1028.7 1028.7 0.0
22/01:30pm 17.7 14.3 11.3 66 3.5 NE 20 24 11 13 1028.9 1028.9 0.0
22/01:00pm 17.5 14.1 10.4 63 3.8 ENE 19 20 10 11 1029.3 1029.3 0.0
22/12:30pm 17.6 14.0 10.0 61 4.0 ENE 19 20 10 11 1029.6 1029.6 0.0
22/12:00pm 17.7 14.7 10.6 63 3.8 ENE 17 20 9 11 1030.0 1030.0 0.0
22/11:30am 17.3 14.1 10.0 62 3.9 ENE 17 22 9 12 1030.5 1030.5 0.0
22/11:00am 17.2 14.4 9.9 62 3.8 E 15 19 8 10 1030.9 1030.9 0.0
22/10:30am 17.3 14.8 11.1 67 3.3 E 15 19 8 10 1031.1 1031.1 0.0
22/10:00am 16.4 14.3 9.6 64 3.5 E 11 15 6 8 1031.3 1031.3 0.0
22/09:30am 16.4 14.7 10.0 66 3.4 ESE 9 13 5 7 1031.4 1031.4 0.0
22/09:00am 15.7 14.8 9.4 66 3.2 NNW 4 9 2 5 1031.6 1031.6 0.0
22/08:30am 13.7 11.6 9.9 78 2.0 SW 11 13 6 7 1031.6 1031.6 0.0
22/08:00am 12.5 11.4 10.0 85 1.3 WSW 6 13 3 7 1031.7 1031.7 0.0
22/07:30am 10.6 10.4 10.6 100 0.0 WSW 2 7 1 4 1031.7 1031.7 0.0
22/07:00am 8.5 6.5 8.5 100 0.0 SW 9 13 5 7 1031.4 1031.4 0.0
22/06:30am 6.3 5.1 6.3 100 0.0 W 2 6 1 3 1031.2 1031.2 0.0
22/06:00am 5.1 3.2 5.1 100 0.0 W 4 7 2 4 1030.8 1030.8 0.0
22/05:30am 4.9 3.8 4.9 100 0.0 CALM 0 0 0 0 1030.5 1030.5 0.0
22/05:00am 5.2 3.0 5.2 100 0.0 WSW 6 7 3 4 1030.2 1030.2 0.0
22/04:30am 5.3 3.1 5.3 100 0.0 WSW 6 7 3 4 1029.9 1029.9 0.0
22/04:00am 5.5 4.5 5.5 100 0.0 CALM 0 0 0 0 1029.6 1029.6 0.0
22/03:30am 5.6 3.8 5.6 100 0.0 NW 4 7 2 4 1029.6 1029.6 0.0
22/03:00am 6.4 4.2 6.4 100 0.0 NW 7 9 4 5 1029.6 1029.6 0.0
22/02:30am 7.0 5.0 7.0 100 0.0 NW 7 9 4 5 1030.0 1030.0 0.0
22/02:00am 7.6 5.0 7.6 100 0.0 NW 11 11 6 6 1030.3 1030.3 0.0
22/01:30am 7.6 5.9 7.6 100 0.0 WNW 6 7 3 4 1030.4 1030.4 0.0
22/01:00am 8.3 6.7 7.9 97 0.2 NW 6 7 3 4 1030.7 1030.7 0.0
22/12:30am 9.5 7.9 8.6 94 0.4 NW 7 9 4 5 1031.0 1031.0 0.0
22/12:00am 10.5 9.1 8.9 90 0.8 WNW 6 9 3 5 1031.0 1031.0 0.0
 
Date/Time
EST
Temp
°C
App
Temp
°C
Dew
Point
Rel
Hum
%
Delta-T
°C
Wind Press
QNH
hPa
Press
MSL
hPa
Rain
since 9 am
mm
Dir
 
Spd
km/h
Gust
km/h
Spd
kts
Gust
kts
21/11:30pm 10.9 9.4 9.2 89 0.8 WSW 7 9 4 5 1031.3 1031.3 0.0
21/11:00pm 11.2 10.6 9.1 87 1.0 WNW 2 7 1 4 1031.2 1031.2 0.0
21/10:30pm 11.3 9.9 9.0 86 1.1 W 6 9 3 5 1031.3 1031.3 0.0
21/10:00pm 11.0 9.7 9.1 88 0.9 W 6 7 3 4 1031.4 1031.4 0.0
21/09:30pm 10.4 9.0 9.5 94 0.4 WNW 7 11 4 6 1031.1 1031.1 0.0
21/09:00pm 9.0 7.9 8.5 97 0.2 W 4 7 2 4 1031.0 1031.0 0.0
21/08:30pm 8.1 6.3 7.3 95 0.4 WNW 6 9 3 5 1030.8 1030.8 0.0
21/08:00pm 8.8 8.3 8.0 95 0.4 CALM 0 0 0 0 1030.5 1030.5 0.0
21/07:30pm 9.3 8.8 7.9 91 0.7 CALM 0 0 0 0 1030.4 1030.4 0.0
21/07:00pm 10.1 9.6 7.7 85 1.1 CALM 0 0 0 0 1030.2 1030.2 0.0
21/06:30pm 12.1 10.3 7.2 72 2.4 SE 6 9 3 5 1029.9 1029.9 0.0
21/06:00pm 14.2 12.0 7.9 66 3.1 ESE 9 13 5 7 1029.5 1029.5 0.0
21/05:30pm 14.8 12.7 8.1 64 3.4 ESE 9 15 5 8 1029.4 1029.4 0.0
21/05:00pm 15.5 13.3 7.8 60 3.8 E 9 13 5 7 1028.9 1028.9 0.0
21/04:30pm 15.8 13.2 7.8 59 4.0 E 11 13 6 7 1028.7 1028.7 0.0
21/04:00pm 16.3 13.4 8.0 58 4.2 E 13 17 7 9 1028.4 1028.4 0.0
21/03:30pm 16.6 13.8 8.6 59 4.1 E 13 17 7 9 1028.1 1028.1 0.0
21/03:00pm 16.5 12.9 8.5 59 4.1 ENE 17 20 9 11 1028.0 1028.0 0.0
21/02:30pm 16.7 13.3 9.1 61 3.9 E 17 20 9 11 1028.1 1028.1 0.0
21/02:00pm 16.5 12.7 9.2 62 3.8 E 19 24 10 13 1028.1 1028.1 0.0
21/01:30pm 16.5 12.7 9.2 62 3.8 E 19 22 10 12 1028.4 1028.4 0.0
21/01:00pm 16.9 13.3 9.8 63 3.7 E 19 22 10 12 1028.6 1028.6 0.0
21/12:30pm 17.1 13.7 9.0 59 4.2 E 17 20 9 11 1028.7 1028.7 0.0
21/12:00pm 17.5 14.2 9.7 60 4.1 ENE 17 20 9 11 1029.1 1029.1 0.0
21/11:30am 17.2 13.7 8.9 58 4.3 ENE 17 19 9 10 1029.5 1029.5 0.0
21/11:00am 16.4 13.1 8.1 58 4.2 ENE 15 19 8 10 1030.0 1030.0 0.0
21/10:30am 16.6 14.0 9.3 62 3.8 E 13 15 7 8 1030.2 1030.2 0.0
21/10:00am 16.2 13.4 8.4 60 3.9 ENE 13 17 7 9 1030.2 1030.2 0.0
21/09:30am 16.1 13.7 8.8 62 3.7 ENE 11 13 6 7 1030.4 1030.4 0.0
21/09:00am 15.2 13.4 7.2 59 3.9 SSW 6 9 3 5 1030.7 1030.7 0.0
21/08:30am 14.4 12.9 9.0 70 2.7 SW 7 9 4 5 1030.7 1030.7 0.0
21/08:00am 12.4 10.7 9.8 84 1.3 WSW 9 11 5 6 1030.7 1030.7 0.0
21/07:30am 11.3 9.9 9.6 89 0.9 SW 7 13 4 7 1030.4 1030.4 0.0
21/07:00am 11.0 11.1 10.1 94 0.5 CALM 0 0 0 0 1030.0 1030.0 0.0
21/06:30am 10.5 9.7 9.7 95 0.4 WSW 4 7 2 4 1029.5 1029.5 0.0
21/06:00am 10.2 9.8 9.7 97 0.2 W 2 7 1 4 1028.8 1028.8 0.0
21/05:30am 9.9 9.5 9.8 99 0.1 WNW 2 6 1 3 1028.4 1028.4 0.0
21/05:00am 9.5 9.0 9.5 100 0.0 W 2 6 1 3 1028.1 1028.1 0.0
21/04:30am 9.5 9.4 9.4 99 0.0 CALM 0 0 0 0 1027.7 1027.7 0.0
21/04:00am 9.9 9.8 9.6 98 0.1 CALM 0 0 0 0 1027.5 1027.5 0.0
21/03:30am 10.1 10.0 9.6 97 0.2 CALM 0 0 0 0 1027.4 1027.4 0.0
21/03:00am 10.6 10.2 9.7 94 0.4 WSW 2 6 1 3 1027.4 1027.4 0.0
21/02:30am 11.0 10.3 9.9 93 0.6 W 4 7 2 4 1027.6 1027.6 0.0
21/02:00am 11.1 11.1 9.9 92 0.6 CALM 0 4 0 2 1027.9 1027.9 0.0
21/01:30am 11.2 10.1 9.8 91 0.7 WSW 6 7 3 4 1028.0 1028.0 0.0
21/01:00am 11.5 11.5 9.8 89 0.9 CALM 0 6 0 3 1028.2 1028.2 0.0
21/12:30am 11.8 11.2 10.4 91 0.7 SW 4 11 2 6 1028.5 1028.5 0.0
21/12:00am 12.0 10.8 9.6 85 1.2 W 6 9 3 5 1028.5 1028.5 0.0
 
Date/Time
EST
Temp
°C
App
Temp
°C
Dew
Point
Rel
Hum
%
Delta-T
°C
Wind Press
QNH
hPa
Press
MSL
hPa
Rain
since 9 am
mm
Dir
 
Spd
km/h
Gust
km/h
Spd
kts
Gust
kts
20/11:30pm 12.5 11.3 9.5 82 1.5 WSW 6 9 3 5 1028.6 1028.6 0.0
20/11:00pm 11.6 10.4 9.7 88 1.0 WSW 6 7 3 4 1028.7 1028.7 0.0
20/10:30pm 11.8 10.6 9.5 86 1.2 WSW 6 7 3 4 1028.7 1028.7 0.0
20/10:00pm 12.6 11.2 9.4 81 1.6 WSW 7 13 4 7 1028.4 1028.4 0.0
20/09:30pm 13.5 12.1 9.4 76 2.1 WSW 7 9 4 5 1028.3 1028.3 0.0
20/09:00pm 14.4 12.6 9.6 73 2.5 WSW 9 13 5 7 1028.2 1028.2 0.0
20/08:30pm 15.1 12.2 9.7 70 2.8 S 15 20 8 11 1027.8 1027.8 0.0
20/08:00pm 15.4 13.1 10.6 73 2.5 S 13 20 7 11 1027.6 1027.6 0.0
20/07:30pm 15.4 12.7 10.2 71 2.7 SSE 15 24 8 13 1027.3 1027.3 0.0
20/07:00pm 15.3 12.4 9.7 69 2.9 S 15 22 8 12 1027.0 1027.0 0.0
20/06:30pm 15.2 12.2 9.1 67 3.1 SSE 15 22 8 12 1026.2 1026.2 0.0
20/06:00pm 15.2 11.9 9.6 69 2.9 SSE 17 24 9 13 1025.9 1025.9 0.0

Other Formats:

Comma delimited format used in spreadsheet applications
http://www.bom.gov.au/fwo/IDN60801/IDN60801.95937.axf

JavaScript Object Notation format (JSON) in row-major order
http://www.bom.gov.au/fwo/IDN60801/IDN60801.95937.json